createdAt,value
2022-10-08T00:03:47.340Z,6.89
2022-10-08T00:08:50.246Z,6.83
2022-10-08T00:13:52.460Z,6.76
2022-10-08T00:18:55.294Z,6.62
2022-10-08T00:23:57.363Z,6.58
2022-10-08T00:29:00.054Z,6.51
2022-10-08T00:34:02.634Z,6.42
2022-10-08T00:39:06.041Z,6.38
2022-10-08T00:44:26.319Z,6.31
2022-10-08T00:49:27.627Z,6.23
2022-10-08T00:54:29.646Z,6.11
2022-10-08T00:59:30.948Z,6.05
2022-10-08T01:04:32.278Z,6.03
2022-10-08T01:09:54.100Z,5.87
2022-10-08T01:15:00.382Z,5.79
2022-10-08T01:20:12.982Z,5.73
2022-10-08T01:25:32.691Z,5.71
2022-10-08T01:30:35.324Z,5.59
2022-10-08T01:35:37.789Z,5.74
2022-10-08T01:40:41.405Z,5.63
2022-10-08T01:45:46.207Z,5.51
2022-10-08T01:51:03.033Z,5.65
2022-10-08T01:56:05.900Z,5.66
2022-10-08T02:01:20.339Z,5.64
2022-10-08T02:06:21.743Z,5.70
2022-10-08T02:11:23.068Z,5.71
2022-10-08T02:16:27.893Z,5.62
2022-10-08T02:21:29.641Z,5.55
2022-10-08T02:26:37.296Z,5.48
2022-10-08T02:31:47.789Z,5.44
2022-10-08T02:36:55.803Z,5.37
2022-10-08T02:41:59.938Z,5.39
2022-10-08T02:47:04.526Z,5.40
2022-10-08T02:52:08.296Z,5.33
2022-10-08T02:57:24.022Z,5.32
2022-10-08T03:02:36.291Z,5.24
2022-10-08T03:07:37.673Z,5.20
2022-10-08T03:12:39.155Z,5.08
2022-10-08T03:17:42.673Z,5.03
2022-10-08T03:22:44.101Z,4.93
2022-10-08T03:27:45.515Z,4.94
2022-10-08T03:32:47.043Z,4.96
2022-10-08T03:37:48.510Z,4.98
2022-10-08T03:42:50.879Z,5.02
2022-10-08T03:47:52.522Z,5.06
2022-10-08T03:52:53.815Z,5.13
2022-10-08T03:57:55.124Z,5.03
2022-10-08T04:02:56.576Z,4.98
2022-10-08T04:07:57.941Z,4.98
2022-10-08T04:12:59.303Z,4.95
2022-10-08T04:18:00.606Z,4.84
2022-10-08T04:23:01.913Z,4.86
2022-10-08T04:28:04.009Z,4.92
2022-10-08T04:33:05.396Z,4.96
2022-10-08T04:38:06.699Z,5.09
2022-10-08T04:43:08.135Z,5.17
2022-10-08T04:48:09.766Z,5.36
2022-10-08T04:53:11.069Z,5.54
2022-10-08T04:58:12.366Z,5.42
2022-10-08T05:03:13.745Z,5.58
2022-10-08T05:08:15.069Z,5.77
2022-10-08T05:13:16.381Z,6.05
2022-10-08T05:18:17.679Z,6.12
2022-10-08T05:23:18.989Z,6.24
2022-10-08T05:28:20.337Z,6.47
2022-10-08T05:33:21.642Z,6.43
2022-10-08T05:38:23.031Z,6.55
2022-10-08T05:43:24.328Z,6.61
2022-10-08T05:48:25.633Z,6.61
2022-10-08T05:53:26.945Z,6.74
2022-10-08T05:58:30.493Z,6.85
2022-10-08T06:03:31.994Z,6.96
2022-10-08T06:08:34.276Z,6.98
2022-10-08T06:13:35.622Z,7.25
2022-10-08T06:18:37.928Z,7.32
2022-10-08T06:23:40.236Z,7.54
2022-10-08T06:28:41.682Z,7.67
2022-10-08T06:33:43.005Z,7.69
2022-10-08T06:38:48.824Z,7.79
2022-10-08T06:43:50.178Z,7.89
2022-10-08T06:48:51.492Z,8.15
2022-10-08T06:53:58.664Z,8.26
2022-10-08T06:59:01.855Z,8.42
2022-10-08T07:04:04.279Z,8.57
2022-10-08T07:09:07.135Z,8.67
2022-10-08T07:14:08.475Z,8.82
2022-10-08T07:19:09.927Z,8.78
2022-10-08T07:24:11.364Z,8.82
2022-10-08T07:29:13.768Z,8.97
2022-10-08T07:34:15.111Z,9.31
2022-10-08T07:39:18.911Z,9.67
2022-10-08T07:44:20.256Z,10.55
2022-10-08T07:49:21.602Z,11.23
2022-10-08T07:54:22.975Z,11.15
2022-10-08T07:59:24.298Z,11.08
2022-10-08T08:04:26.086Z,11.13
2022-10-08T08:09:28.320Z,11.78
2022-10-08T08:14:29.692Z,11.98
2022-10-08T08:19:31.051Z,12.26
2022-10-08T08:24:32.675Z,12.03
2022-10-08T08:29:33.995Z,12.02
2022-10-08T08:34:35.291Z,12.34
2022-10-08T08:39:38.397Z,12.51
2022-10-08T08:44:43.575Z,12.52
2022-10-08T08:49:47.274Z,12.10
2022-10-08T08:54:49.484Z,12.43
2022-10-08T08:59:53.209Z,13.04
2022-10-08T09:04:57.297Z,13.18
2022-10-08T09:09:59.067Z,15.72
2022-10-08T09:15:01.712Z,19.05
2022-10-08T09:20:03.435Z,20.24
2022-10-08T09:25:06.662Z,19.98
2022-10-08T09:30:26.201Z,20.91
2022-10-08T09:35:27.846Z,18.70
2022-10-08T09:40:29.149Z,20.86
2022-10-08T09:45:34.631Z,18.49
2022-10-08T09:50:37.169Z,17.22
2022-10-08T09:55:38.629Z,15.93
2022-10-08T10:00:39.955Z,15.43
2022-10-08T10:05:41.426Z,18.82
2022-10-08T10:10:45.133Z,18.60
2022-10-08T10:16:06.675Z,21.08
2022-10-08T10:21:14.045Z,22.11
2022-10-08T10:26:17.789Z,23.70
2022-10-08T10:31:23.480Z,20.65
2022-10-08T10:36:27.562Z,21.26
2022-10-08T10:41:43.352Z,20.72
2022-10-08T10:46:49.542Z,21.48
2022-10-08T10:52:09.123Z,23.20
2022-10-08T10:57:16.437Z,23.73
2022-10-08T11:02:26.497Z,22.57
2022-10-08T11:07:37.424Z,23.18
2022-10-08T11:12:57.565Z,24.18
2022-10-08T11:18:08.460Z,20.88
2022-10-08T11:23:16.216Z,22.20
2022-10-08T11:28:26.836Z,24.37
2022-10-08T11:33:28.428Z,22.54
2022-10-08T11:38:33.378Z,21.69
2022-10-08T11:43:43.674Z,23.55
2022-10-08T11:48:45.087Z,24.65
2022-10-08T11:54:00.300Z,23.28
2022-10-08T11:59:07.057Z,23.25
2022-10-08T12:04:19.608Z,23.93
2022-10-08T12:09:24.451Z,22.72
2022-10-08T12:14:26.084Z,20.63
2022-10-08T12:19:33.731Z,21.09
2022-10-08T12:24:38.135Z,19.57
2022-10-08T12:29:58.488Z,20.48
2022-10-08T12:35:01.562Z,21.15
2022-10-08T12:40:09.352Z,21.82
2022-10-08T12:45:13.492Z,20.20
2022-10-08T12:50:28.663Z,18.31
2022-10-08T12:55:37.708Z,19.36
2022-10-08T13:00:39.769Z,20.33
2022-10-08T13:05:45.111Z,20.85
2022-10-08T13:10:46.486Z,21.05
2022-10-08T13:15:57.949Z,21.22
2022-10-08T13:21:00.681Z,20.14
2022-10-08T13:26:02.363Z,20.65
2022-10-08T13:31:20.092Z,20.95
2022-10-08T13:36:23.291Z,20.39
2022-10-08T13:41:25.153Z,19.17
2022-10-08T13:46:26.523Z,19.81
2022-10-08T13:51:27.872Z,20.08
2022-10-08T13:56:29.236Z,17.98
2022-10-08T14:01:30.585Z,18.89
2022-10-08T14:06:31.981Z,19.54
2022-10-08T14:11:33.527Z,19.41
2022-10-08T14:16:34.939Z,18.94
2022-10-08T14:21:37.757Z,18.63
2022-10-08T14:26:39.079Z,18.59
2022-10-08T14:31:40.474Z,17.97
2022-10-08T14:36:42.388Z,17.44
2022-10-08T14:41:44.294Z,16.99
2022-10-08T14:46:47.371Z,16.88
2022-10-08T14:51:48.755Z,16.78
2022-10-08T14:56:50.100Z,16.62
2022-10-08T15:01:51.433Z,16.12
2022-10-08T15:06:52.779Z,15.85
2022-10-08T15:11:54.210Z,15.72
2022-10-08T15:16:55.583Z,15.66
2022-10-08T15:21:56.941Z,15.40
2022-10-08T15:26:58.232Z,15.31
2022-10-08T15:31:59.624Z,15.07
2022-10-08T15:37:00.932Z,14.95
2022-10-08T15:42:02.270Z,14.73
2022-10-08T15:47:06.881Z,14.62
2022-10-08T15:52:10.288Z,14.35
2022-10-08T15:57:12.540Z,14.33
2022-10-08T16:02:17.169Z,14.33
2022-10-08T16:07:19.266Z,14.02
2022-10-08T16:12:20.571Z,13.69
2022-10-08T16:17:21.865Z,13.40
2022-10-08T16:22:23.163Z,13.25
2022-10-08T16:27:24.533Z,13.04
2022-10-08T16:32:25.850Z,12.87
2022-10-08T16:37:27.150Z,12.73
2022-10-08T16:42:28.444Z,12.59
2022-10-08T16:47:29.810Z,12.45
2022-10-08T16:52:31.144Z,12.31
2022-10-08T16:57:33.732Z,12.11
2022-10-08T17:02:35.101Z,11.87
2022-10-08T17:07:36.434Z,11.77
2022-10-08T17:12:37.755Z,11.54
2022-10-08T17:17:39.110Z,11.07
2022-10-08T17:22:40.933Z,10.78
2022-10-08T17:27:43.018Z,10.57
2022-10-08T17:32:44.580Z,10.48
2022-10-08T17:37:46.015Z,10.28
2022-10-08T17:42:47.553Z,10.02
2022-10-08T17:47:49.043Z,9.79
2022-10-08T17:52:50.819Z,9.60
2022-10-08T17:57:52.268Z,9.39
2022-10-08T18:02:53.614Z,9.20
2022-10-08T18:07:55.004Z,9.04
2022-10-08T18:12:56.474Z,9.02
2022-10-08T18:17:57.779Z,8.75
2022-10-08T18:22:59.210Z,8.63
2022-10-08T18:28:00.597Z,8.53
2022-10-08T18:33:02.043Z,8.40
2022-10-08T18:38:03.366Z,8.20
2022-10-08T18:43:04.671Z,8.05
2022-10-08T18:48:06.334Z,8.00
2022-10-08T18:53:07.668Z,7.81
2022-10-08T18:58:08.980Z,7.73
2022-10-08T19:03:10.355Z,7.67
2022-10-08T19:08:11.724Z,7.45
2022-10-08T19:13:13.176Z,7.38
2022-10-08T19:18:14.471Z,7.29
2022-10-08T19:23:15.852Z,7.16
2022-10-08T19:28:17.192Z,7.12
2022-10-08T19:33:18.561Z,7.01
2022-10-08T19:38:20.160Z,6.93
2022-10-08T19:43:21.467Z,6.85
2022-10-08T19:48:22.817Z,6.78
2022-10-08T19:53:24.222Z,6.67
2022-10-08T19:58:25.578Z,6.59
2022-10-08T20:03:27.091Z,6.50
2022-10-08T20:08:28.532Z,6.40
2022-10-08T20:13:29.850Z,6.32
2022-10-08T20:18:31.414Z,6.19
2022-10-08T20:23:33.387Z,6.08
2022-10-08T20:28:34.789Z,6.01
2022-10-08T20:33:36.259Z,5.92
2022-10-08T20:38:37.837Z,5.84
2022-10-08T20:43:39.746Z,5.80
2022-10-08T20:48:42.460Z,5.74
2022-10-08T20:53:47.407Z,5.66
2022-10-08T20:58:48.811Z,5.67
2022-10-08T21:03:50.930Z,5.60
2022-10-08T21:08:52.976Z,5.56
2022-10-08T21:13:54.470Z,5.57
2022-10-08T21:18:57.379Z,5.48
2022-10-08T21:23:59.186Z,5.37
2022-10-08T21:29:01.798Z,5.38
2022-10-08T21:34:03.661Z,5.30
2022-10-08T21:39:06.655Z,5.21
2022-10-08T21:44:08.437Z,5.19
2022-10-08T21:49:17.058Z,5.16
2022-10-08T21:54:18.439Z,5.06
2022-10-08T21:59:19.859Z,4.93
2022-10-08T22:04:22.728Z,4.80
2022-10-08T22:09:25.813Z,4.81
2022-10-08T22:14:28.534Z,4.86
2022-10-08T22:19:29.837Z,4.80
2022-10-08T22:24:31.186Z,4.82
2022-10-08T22:29:34.174Z,4.73
2022-10-08T22:34:35.519Z,4.63
2022-10-08T22:39:36.881Z,4.60
2022-10-08T22:44:38.349Z,4.51
2022-10-08T22:49:39.666Z,4.50
2022-10-08T22:54:40.984Z,4.49
2022-10-08T22:59:42.282Z,4.44
2022-10-08T23:04:43.675Z,4.28
2022-10-08T23:09:44.990Z,4.19
2022-10-08T23:14:46.310Z,4.13
2022-10-08T23:19:47.621Z,4.12
2022-10-08T23:24:49.003Z,4.01
2022-10-08T23:29:50.348Z,3.96
2022-10-08T23:34:52.349Z,3.91
2022-10-08T23:39:57.789Z,3.89
2022-10-08T23:44:59.417Z,3.87
2022-10-08T23:50:00.718Z,3.77
2022-10-08T23:55:02.020Z,3.72
